createdAt,value
2023-03-04T00:01:35.072Z,1.10
2023-03-04T00:04:04.435Z,1.00
2023-03-04T00:06:31.782Z,1.00
2023-03-04T00:09:00.177Z,0.90
2023-03-04T00:11:27.617Z,0.90
2023-03-04T00:13:55.510Z,0.90
2023-03-04T00:16:22.666Z,0.90
2023-03-04T00:18:51.589Z,0.80
2023-03-04T00:21:20.863Z,0.70
2023-03-04T00:23:50.887Z,0.60
2023-03-04T00:26:25.120Z,0.60
2023-03-04T00:29:01.244Z,0.50
2023-03-04T00:31:28.798Z,0.50
2023-03-04T00:33:56.443Z,0.50
2023-03-04T00:36:24.100Z,0.50
2023-03-04T00:38:52.595Z,0.50
2023-03-04T00:41:20.582Z,0.40
2023-03-04T00:43:50.540Z,0.40
2023-03-04T00:49:45.159Z,0.50
2023-03-04T00:52:14.384Z,0.50
2023-03-04T00:54:50.764Z,0.60
2023-03-04T00:57:18.312Z,0.50
2023-03-04T00:59:46.400Z,0.50
2023-03-04T01:02:13.362Z,0.40
2023-03-04T01:04:42.243Z,0.30
2023-03-04T01:07:09.892Z,0.10
2023-03-04T01:09:37.297Z,0.00
2023-03-04T01:12:04.230Z,-0.10
2023-03-04T01:14:31.052Z,-0.20
2023-03-04T01:17:01.784Z,-0.10
2023-03-04T01:19:30.289Z,-0.10
2023-03-04T01:21:59.148Z,-0.10
2023-03-04T01:24:27.309Z,-0.10
2023-03-04T01:26:56.424Z,-0.10
2023-03-04T01:29:23.974Z,-0.10
2023-03-04T01:31:52.861Z,-0.10
2023-03-04T01:34:22.238Z,-0.20
2023-03-04T01:36:49.026Z,-0.20
2023-03-04T01:39:15.828Z,-0.30
2023-03-04T01:41:42.821Z,-0.40
2023-03-04T01:44:10.137Z,-0.40
2023-03-04T01:46:37.149Z,-0.40
2023-03-04T01:49:04.487Z,-0.50
2023-03-04T01:51:31.522Z,-0.50
2023-03-04T01:53:58.591Z,-0.50
2023-03-04T01:56:30.186Z,-0.60
2023-03-04T01:59:13.440Z,-0.70
2023-03-04T02:01:43.745Z,-0.80
2023-03-04T02:04:11.071Z,-0.80
2023-03-04T02:06:39.440Z,-0.80
2023-03-04T02:09:15.130Z,-0.80
2023-03-04T02:11:42.711Z,-0.70
2023-03-04T02:14:12.771Z,-0.80
2023-03-04T02:16:39.666Z,-0.80
2023-03-04T02:19:10.643Z,-0.80
2023-03-04T02:21:37.774Z,-0.80
2023-03-04T02:24:22.647Z,-0.80
2023-03-04T02:26:51.088Z,-0.90
2023-03-04T02:29:22.906Z,-0.90
2023-03-04T02:31:52.370Z,-0.80
2023-03-04T02:34:32.308Z,-0.80
2023-03-04T02:36:59.727Z,-0.80
2023-03-04T02:39:35.534Z,-0.80
2023-03-04T02:42:04.006Z,-0.90
2023-03-04T02:44:37.514Z,-1.00
2023-03-04T02:47:10.689Z,-1.10
2023-03-04T02:49:41.568Z,-1.10
2023-03-04T02:52:13.222Z,-1.20
2023-03-04T02:54:40.863Z,-1.20
2023-03-04T02:57:12.232Z,-1.20
2023-03-04T02:59:47.891Z,-1.30
2023-03-04T03:02:23.296Z,-1.30
2023-03-04T03:04:54.634Z,-1.30
2023-03-04T03:07:26.725Z,-1.40
2023-03-04T03:10:05.484Z,-1.30
2023-03-04T03:12:36.575Z,-1.30
2023-03-04T03:15:09.833Z,-1.40
2023-03-04T03:17:45.193Z,-1.60
2023-03-04T03:20:21.107Z,-1.50
2023-03-04T03:22:58.355Z,-1.50
2023-03-04T03:25:58.595Z,-1.60
2023-03-04T03:28:32.918Z,-1.60
2023-03-04T03:31:11.548Z,-1.60
2023-03-04T03:39:41.448Z,-1.30
2023-03-04T03:42:11.640Z,-1.40
2023-03-04T03:47:35.344Z,-1.40
2023-03-04T03:53:09.587Z,-1.40
2023-03-04T03:55:44.525Z,-1.50
2023-03-04T03:58:17.371Z,-1.60
2023-03-04T04:00:50.075Z,-1.70
2023-03-04T04:03:29.843Z,-1.80
2023-03-04T04:05:57.827Z,-1.70
2023-03-04T04:08:43.210Z,-1.80
2023-03-04T04:11:15.903Z,-1.90
2023-03-04T04:13:44.485Z,-1.90
2023-03-04T04:16:21.866Z,-1.70
2023-03-04T04:18:49.714Z,-1.80
2023-03-04T04:21:18.257Z,-1.70
2023-03-04T04:23:47.272Z,-1.80
2023-03-04T04:26:17.659Z,-1.70
2023-03-04T04:28:45.044Z,-1.70
2023-03-04T04:31:16.661Z,-1.60
2023-03-04T04:33:54.540Z,-1.50
2023-03-04T04:36:24.347Z,-1.40
2023-03-04T04:38:55.028Z,-1.30
2023-03-04T04:41:37.397Z,-1.20
2023-03-04T04:44:15.852Z,-1.20
2023-03-04T04:46:47.097Z,-1.20
2023-03-04T04:49:16.272Z,-1.10
2023-03-04T04:51:45.265Z,-1.00
2023-03-04T04:54:14.877Z,-1.00
2023-03-04T04:56:52.900Z,-0.90
2023-03-04T04:59:28.460Z,-0.80
2023-03-04T05:01:57.228Z,-0.80
2023-03-04T05:04:29.342Z,-0.70
2023-03-04T05:06:59.159Z,-0.60
2023-03-04T05:09:30.667Z,-0.60
2023-03-04T05:11:59.636Z,-0.50
2023-03-04T05:14:28.316Z,-0.50
2023-03-04T05:16:58.883Z,-0.50
2023-03-04T05:19:28.800Z,-0.40
2023-03-04T05:21:58.489Z,-0.40
2023-03-04T05:24:27.087Z,-0.40
2023-03-04T05:26:56.591Z,-0.40
2023-03-04T05:29:23.725Z,-0.40
2023-03-04T05:31:57.005Z,-0.40
2023-03-04T05:34:24.427Z,-0.30
2023-03-04T05:36:56.553Z,-0.30
2023-03-04T05:39:28.685Z,-0.20
2023-03-04T05:41:57.824Z,-0.20
2023-03-04T05:44:27.986Z,-0.20
2023-03-04T05:47:00.850Z,-0.20
2023-03-04T05:49:27.963Z,-0.10
2023-03-04T05:51:55.225Z,-0.10
2023-03-04T05:54:27.739Z,-0.20
2023-03-04T05:56:58.745Z,-0.10
2023-03-04T05:59:25.920Z,-0.10
2023-03-04T06:02:01.574Z,-0.10
2023-03-04T06:04:40.267Z,-0.10
2023-03-04T06:07:08.570Z,0.00
2023-03-04T06:09:36.272Z,0.00
2023-03-04T06:12:03.336Z,0.00
2023-03-04T06:14:32.654Z,0.00
2023-03-04T06:16:59.673Z,0.10
2023-03-04T06:19:30.327Z,0.10
2023-03-04T06:21:57.681Z,0.20
2023-03-04T06:24:30.789Z,0.20
2023-03-04T06:27:07.251Z,0.20
2023-03-04T06:29:34.318Z,0.20
2023-03-04T06:47:26.691Z,0.30
2023-03-04T06:49:54.805Z,0.40
2023-03-04T06:52:24.332Z,0.30
2023-03-04T06:54:52.358Z,0.40
2023-03-04T06:57:19.187Z,0.50
2023-03-04T06:59:46.346Z,0.50
2023-03-04T07:02:13.295Z,0.60
2023-03-04T07:04:41.146Z,0.60
2023-03-04T07:07:08.383Z,0.60
2023-03-04T07:10:10.416Z,0.70
2023-03-04T07:12:37.306Z,0.70
2023-03-04T07:15:04.580Z,0.80
2023-03-04T07:17:32.763Z,0.80
2023-03-04T07:19:59.623Z,0.90
2023-03-04T07:22:28.488Z,1.00
2023-03-04T07:24:55.952Z,1.10
2023-03-04T07:27:24.505Z,1.20
2023-03-04T07:29:51.728Z,1.30
2023-03-04T07:32:19.375Z,1.40
2023-03-04T07:34:46.230Z,1.40
2023-03-04T07:37:13.296Z,1.50
2023-03-04T07:39:40.452Z,1.60
2023-03-04T07:42:07.748Z,1.60
2023-03-04T07:44:39.978Z,1.70
2023-03-04T07:47:07.545Z,1.70
2023-03-04T07:49:34.401Z,1.80
2023-03-04T07:52:08.079Z,1.80
2023-03-04T07:54:39.508Z,1.80
2023-03-04T07:57:07.137Z,1.80
2023-03-04T07:59:34.262Z,1.80
2023-03-04T08:02:01.302Z,1.80
2023-03-04T08:04:29.008Z,1.90
2023-03-04T08:06:55.871Z,1.90
2023-03-04T08:09:22.901Z,1.90
2023-03-04T08:11:50.034Z,2.00
2023-03-04T08:14:17.122Z,2.00
2023-03-04T08:16:43.843Z,2.00
2023-03-04T08:19:12.072Z,2.00
2023-03-04T08:21:39.554Z,2.00
2023-03-04T08:24:08.799Z,2.10
2023-03-04T08:26:42.346Z,2.10
2023-03-04T08:29:13.673Z,2.20
2023-03-04T08:31:40.957Z,2.20
2023-03-04T08:34:10.194Z,2.20
2023-03-04T08:36:37.044Z,2.20
2023-03-04T08:39:04.630Z,2.30
2023-03-04T08:41:33.819Z,2.40
2023-03-04T08:44:00.973Z,2.40
2023-03-04T08:46:28.408Z,2.50
2023-03-04T08:48:55.317Z,2.50
2023-03-04T08:51:22.761Z,2.50
2023-03-04T08:53:49.990Z,2.50
2023-03-04T08:56:43.729Z,2.60
2023-03-04T08:59:11.282Z,2.60
2023-03-04T09:01:38.339Z,2.60
2023-03-04T09:04:05.540Z,2.60
2023-03-04T09:06:32.584Z,2.70
2023-03-04T09:08:59.451Z,2.80
2023-03-04T09:11:26.305Z,2.80
2023-03-04T09:13:54.865Z,2.90
2023-03-04T09:16:23.606Z,2.90
2023-03-04T09:18:50.310Z,2.90
2023-03-04T09:21:17.078Z,3.00
2023-03-04T09:23:44.616Z,3.00
2023-03-04T09:26:38.674Z,3.00
2023-03-04T09:29:07.313Z,3.00
2023-03-04T09:31:35.063Z,3.00
2023-03-04T09:34:02.560Z,3.10
2023-03-04T09:36:29.421Z,3.10
2023-03-04T09:39:01.316Z,3.10
2023-03-04T09:41:39.253Z,3.10
2023-03-04T09:44:26.714Z,3.10
2023-03-04T09:46:54.099Z,3.10
2023-03-04T09:49:21.059Z,3.20
2023-03-04T09:52:12.209Z,3.20
2023-03-04T09:54:47.745Z,3.30
2023-03-04T09:57:20.768Z,3.40
2023-03-04T10:00:39.870Z,3.40
2023-03-04T10:03:13.509Z,3.40
2023-03-04T10:05:56.891Z,3.40
2023-03-04T10:08:40.767Z,3.50
2023-03-04T10:11:28.631Z,3.50
2023-03-04T10:14:21.530Z,3.50
2023-03-04T10:16:56.826Z,3.50
2023-03-04T10:19:48.278Z,3.60
2023-03-04T10:22:34.281Z,3.70
2023-03-04T10:25:15.735Z,3.70
2023-03-04T10:27:43.876Z,3.70
2023-03-04T10:30:20.875Z,3.80
2023-03-04T10:33:08.799Z,3.90
2023-03-04T10:40:47.485Z,3.90
2023-03-04T10:47:55.993Z,4.00
2023-03-04T10:50:27.302Z,4.10
2023-03-04T10:52:56.317Z,4.10
2023-03-04T10:55:42.051Z,4.10
2023-03-04T10:58:13.919Z,4.10
2023-03-04T11:00:50.030Z,4.10
2023-03-04T11:03:32.016Z,4.30
2023-03-04T11:06:14.100Z,4.30
2023-03-04T11:08:41.315Z,4.40
2023-03-04T11:11:24.994Z,4.60
2023-03-04T11:13:57.904Z,4.60
2023-03-04T11:16:55.459Z,4.60
2023-03-04T11:19:22.499Z,4.70
2023-03-04T11:21:49.387Z,4.70
2023-03-04T11:24:29.677Z,4.70
2023-03-04T11:27:07.673Z,4.80
2023-03-04T11:29:44.423Z,4.90
2023-03-04T11:32:27.135Z,4.80
2023-03-04T11:35:01.814Z,4.80
2023-03-04T11:37:36.666Z,4.80
2023-03-04T11:40:12.438Z,4.80
2023-03-04T11:42:48.397Z,4.80
2023-03-04T11:45:36.686Z,4.80
2023-03-04T11:48:36.462Z,4.80
2023-03-04T11:51:39.732Z,4.80
2023-03-04T11:54:17.017Z,4.80
2023-03-04T11:57:07.156Z,4.80
2023-03-04T11:59:56.493Z,4.80
2023-03-04T12:04:12.584Z,4.80
2023-03-04T12:07:12.379Z,4.90
2023-03-04T12:10:13.534Z,5.10
2023-03-04T12:16:27.751Z,5.10
2023-03-04T12:19:29.105Z,5.00
2023-03-04T12:31:18.951Z,5.70
2023-03-04T12:34:11.290Z,6.10
2023-03-04T12:48:35.423Z,5.80
2023-03-04T12:51:42.980Z,5.60
2023-03-04T12:54:35.960Z,5.60
2023-03-04T12:57:23.386Z,5.60
2023-03-04T13:03:44.338Z,5.50
2023-03-04T13:06:46.900Z,5.40
2023-03-04T13:10:22.064Z,5.40
2023-03-04T13:17:39.900Z,5.40
2023-03-04T13:21:05.869Z,5.40
2023-03-04T13:23:37.701Z,5.40
2023-03-04T13:50:54.202Z,5.20
2023-03-04T13:53:26.531Z,5.20
2023-03-04T14:00:48.359Z,5.20
2023-03-04T14:03:31.245Z,5.20
2023-03-04T14:06:24.137Z,5.30
2023-03-04T14:29:43.661Z,5.20
2023-03-04T14:51:32.975Z,5.20
2023-03-04T14:56:53.932Z,5.20
2023-03-04T14:59:39.171Z,5.20
2023-03-04T15:02:26.075Z,5.20
2023-03-04T15:04:57.448Z,5.20
2023-03-04T15:07:39.397Z,5.20
2023-03-04T15:10:08.371Z,5.20
2023-03-04T15:12:36.442Z,5.20
2023-03-04T15:15:34.454Z,5.20
2023-03-04T15:21:41.934Z,5.20
2023-03-04T15:24:19.494Z,5.30
2023-03-04T15:26:53.764Z,5.20
2023-03-04T15:29:29.833Z,5.30
2023-03-04T15:35:35.438Z,5.30
2023-03-04T15:53:40.408Z,5.30
2023-03-04T15:56:24.517Z,5.20
2023-03-04T16:02:28.209Z,5.20
2023-03-04T16:04:56.185Z,5.20
2023-03-04T16:07:26.436Z,5.20
2023-03-04T16:10:02.636Z,5.20
2023-03-04T16:12:50.898Z,5.20
2023-03-04T16:15:24.583Z,5.20
2023-03-04T16:21:23.600Z,5.10
2023-03-04T16:27:06.212Z,5.10
2023-03-04T16:29:33.690Z,5.10
2023-03-04T16:32:00.808Z,5.10
2023-03-04T16:34:27.991Z,5.10
2023-03-04T16:36:55.508Z,5.10
2023-03-04T16:39:23.741Z,5.10
2023-03-04T16:41:51.959Z,5.00
2023-03-04T16:44:18.899Z,4.90
2023-03-04T16:46:45.906Z,4.90
2023-03-04T16:49:13.937Z,4.90
2023-03-04T16:51:46.926Z,4.90
2023-03-04T16:54:19.383Z,4.90
2023-03-04T16:56:46.268Z,4.90
2023-03-04T16:59:17.867Z,4.90
2023-03-04T17:01:44.966Z,4.80
2023-03-04T17:04:11.802Z,4.80
2023-03-04T17:06:39.832Z,4.80
2023-03-04T17:09:07.976Z,4.80
2023-03-04T17:11:34.922Z,4.80
2023-03-04T17:14:02.030Z,4.80
2023-03-04T17:16:29.260Z,4.90
2023-03-04T17:18:56.813Z,4.80
2023-03-04T17:21:25.234Z,4.80
2023-03-04T17:23:52.782Z,4.80
2023-03-04T17:26:22.862Z,4.80
2023-03-04T17:28:50.498Z,4.70
2023-03-04T17:31:18.233Z,4.80
2023-03-04T17:33:45.612Z,4.70
2023-03-04T17:36:15.372Z,4.80
2023-03-04T17:38:43.706Z,4.70
2023-03-04T17:41:16.439Z,4.70
2023-03-04T17:43:48.389Z,4.60
2023-03-04T17:46:18.723Z,4.60
2023-03-04T17:48:46.376Z,4.60
2023-03-04T17:51:13.212Z,4.60
2023-03-04T17:53:40.365Z,4.60
2023-03-04T17:56:08.621Z,4.60
2023-03-04T17:58:36.546Z,4.60
2023-03-04T18:01:19.739Z,4.60
2023-03-04T18:03:46.673Z,4.60
2023-03-04T18:06:13.627Z,4.60
2023-03-04T18:08:40.779Z,4.60
2023-03-04T18:11:07.743Z,4.60
2023-03-04T18:13:38.147Z,4.50
2023-03-04T18:16:06.006Z,4.60
2023-03-04T18:18:33.135Z,4.50
2023-03-04T18:21:00.274Z,4.60
2023-03-04T18:23:27.833Z,4.60
2023-03-04T18:25:54.832Z,4.60
2023-03-04T18:28:21.820Z,4.50
2023-03-04T18:30:51.283Z,4.50
2023-03-04T18:33:18.252Z,4.60
2023-03-04T18:35:45.532Z,4.60
2023-03-04T18:38:13.248Z,4.70
2023-03-04T18:40:41.833Z,4.70
2023-03-04T18:43:09.552Z,4.60
2023-03-04T18:45:36.468Z,4.70
2023-03-04T18:48:03.643Z,4.60
2023-03-04T18:50:30.740Z,4.60
2023-03-04T18:52:57.916Z,4.70
2023-03-04T18:55:28.846Z,4.70
2023-03-04T19:03:00.263Z,4.70
2023-03-04T19:05:43.785Z,4.70
2023-03-04T19:08:11.025Z,4.70
2023-03-04T19:10:37.765Z,4.70
2023-03-04T19:13:05.336Z,4.70
2023-03-04T19:15:32.532Z,4.70
2023-03-04T19:17:59.645Z,4.70
2023-03-04T19:20:26.691Z,4.70
2023-03-04T19:22:53.754Z,4.70
2023-03-04T19:25:20.958Z,4.60
2023-03-04T19:27:47.957Z,4.60
2023-03-04T19:30:18.130Z,4.50
2023-03-04T19:32:47.792Z,4.50
2023-03-04T19:35:16.122Z,4.50
2023-03-04T19:37:46.455Z,4.50
2023-03-04T19:40:14.246Z,4.50
2023-03-04T19:42:42.083Z,4.40
2023-03-04T19:45:10.148Z,4.50
2023-03-04T19:47:56.875Z,4.50
2023-03-04T19:50:24.503Z,4.50
2023-03-04T19:52:51.388Z,4.40
2023-03-04T19:55:18.339Z,4.40
2023-03-04T19:57:45.072Z,4.50
2023-03-04T20:00:12.549Z,4.50
2023-03-04T20:09:16.333Z,4.40
2023-03-04T20:19:57.178Z,4.40
2023-03-04T20:22:34.813Z,4.40
2023-03-04T20:25:03.838Z,4.40
2023-03-04T20:28:29.080Z,4.40
2023-03-04T20:31:20.925Z,4.40
2023-03-04T20:33:48.888Z,4.40
2023-03-04T20:36:19.551Z,4.30
2023-03-04T20:38:47.317Z,4.30
2023-03-04T20:41:14.694Z,4.40
2023-03-04T20:43:41.801Z,4.40
2023-03-04T20:46:29.111Z,4.40
2023-03-04T20:48:56.933Z,4.40
2023-03-04T20:51:26.239Z,4.40
2023-03-04T20:53:55.685Z,4.30
2023-03-04T20:56:22.917Z,4.30
2023-03-04T20:58:50.310Z,4.40
2023-03-04T21:01:17.403Z,4.40
2023-03-04T21:03:44.473Z,4.30
2023-03-04T21:06:13.141Z,4.30
2023-03-04T21:08:40.995Z,4.30
2023-03-04T21:11:15.686Z,4.30
2023-03-04T21:13:43.601Z,4.30
2023-03-04T21:16:12.336Z,4.30
2023-03-04T21:18:39.283Z,4.30
2023-03-04T21:21:19.226Z,4.30
2023-03-04T21:23:49.673Z,4.30
2023-03-04T21:26:17.604Z,4.30
2023-03-04T21:28:44.656Z,4.30
2023-03-04T21:31:17.944Z,4.30
2023-03-04T21:33:44.986Z,4.30
2023-03-04T21:36:13.884Z,4.30
2023-03-04T21:38:41.746Z,4.30
2023-03-04T21:41:18.673Z,4.30
2023-03-04T21:43:46.042Z,4.30
2023-03-04T21:46:13.798Z,4.30
2023-03-04T21:48:43.236Z,4.30
2023-03-04T21:51:12.151Z,4.30
2023-03-04T21:53:39.006Z,4.30
2023-03-04T21:56:06.298Z,4.30
2023-03-04T21:58:35.470Z,4.30
2023-03-04T22:01:12.690Z,4.30
2023-03-04T22:03:40.020Z,4.30
2023-03-04T22:06:08.525Z,4.30
2023-03-04T22:08:35.790Z,4.30
2023-03-04T22:11:07.541Z,4.30
2023-03-04T22:13:34.355Z,4.30
2023-03-04T22:16:01.241Z,4.30
2023-03-04T22:18:29.197Z,4.30
2023-03-04T22:21:04.386Z,4.30
2023-03-04T22:23:31.412Z,4.20
2023-03-04T22:26:02.870Z,4.20
2023-03-04T22:28:30.349Z,4.20
2023-03-04T22:30:57.541Z,4.20
2023-03-04T22:33:24.418Z,4.20
2023-03-04T22:35:54.396Z,4.20
2023-03-04T22:38:22.241Z,4.20
2023-03-04T22:40:49.995Z,4.20
2023-03-04T22:43:16.802Z,4.10
2023-03-04T22:45:43.752Z,4.20
2023-03-04T22:48:11.269Z,4.20
2023-03-04T22:50:38.687Z,4.10
2023-03-04T22:53:08.089Z,4.10
2023-03-04T22:55:35.174Z,4.10
2023-03-04T22:58:02.778Z,4.10
2023-03-04T23:00:30.676Z,4.10
2023-03-04T23:02:57.787Z,4.10
2023-03-04T23:05:25.289Z,4.00
2023-03-04T23:07:52.423Z,4.00
2023-03-04T23:10:21.880Z,4.10
2023-03-04T23:12:49.580Z,4.10
2023-03-04T23:15:17.143Z,4.10
2023-03-04T23:17:44.255Z,4.10
2023-03-04T23:20:13.708Z,4.10
2023-03-04T23:22:40.549Z,4.10
2023-03-04T23:25:08.214Z,4.10
2023-03-04T23:27:35.271Z,4.10
2023-03-04T23:30:02.841Z,4.10
2023-03-04T23:32:30.493Z,4.10
2023-03-04T23:34:57.777Z,4.10
2023-03-04T23:37:25.261Z,4.10
2023-03-04T23:39:52.492Z,4.10
2023-03-04T23:42:19.733Z,4.10
2023-03-04T23:44:46.911Z,4.00
2023-03-04T23:47:13.661Z,4.00
2023-03-04T23:49:40.769Z,4.00
2023-03-04T23:52:08.194Z,4.00
2023-03-04T23:54:35.583Z,4.00
2023-03-04T23:57:03.253Z,4.00
2023-03-04T23:59:30.345Z,4.10
